Cmb Mae — VRHQ4 — position and weather

sailwx.info

Track history (hours):
 
Tides and Currents Weather Stations Pressure Air Temp Water Temp Dewpoint Dewpoint Depression Visibility Wind Speed Wind Dir Waves Ship Positions

Cmb Mae

Last reported at 2018-Jan-23 23:07 UTC. Time now 2018-Jan-24 09:55 UTC.
Position N 35°32' E 014°28'.

Length 180 m; draft 9.4 m.

Type: Cargo ship. MMSI: 477962900.

Date/timePositionNaut miles runAvg speedWind from/ knotsBaromVisibWave heightAir tempDewpointWater temp
2018-Jan-23 23:07N 35°32' E 014°28'213.9
2018-Jan-23 23:00N 35°32' E 014°26'612.3
2018-Jan-23 22:30N 35°36' E 014°20'712.9
2018-Jan-23 22:00N 35°40' E 014°13'713.4
2018-Jan-23 21:30N 35°44' E 014°07'713.4
2018-Jan-23 21:00N 35°48' E 014°00'1212.8
2018-Jan-23 20:04N 35°55' E 013°49'112.8
2018-Jan-23 19:58N 35°56' E 013°47'8713.4
2018-Jan-23 13:31N 36°48' E 012°21'113.3
2018-Jan-23 13:27N 36°48' E 012°20'613.5
2018-Jan-23 13:00N 36°52' E 012°14'713.8
2018-Jan-23 12:31N 36°56' E 012°07'713.7
2018-Jan-23 12:01N 36°60' E 012°00'713.4
2018-Jan-23 11:30N 37°03' E 011°53'612.8
2018-Jan-23 11:01N 37°06' E 011°46'612.8
2018-Jan-23 10:31N 37°10' E 011°39'713.4
2018-Jan-23 10:00N 37°13' E 011°32'713.1
2018-Jan-23 09:31N 37°16' E 011°25'713.0
2018-Jan-23 09:01N 37°20' E 011°18'612.8
2018-Jan-23 08:31N 37°23' E 011°11'612.5
2018-Jan-23 08:00N 37°25' E 011°03'713.8
2018-Jan-23 07:30N 37°26' E 010°55'713.6
2018-Jan-23 07:01N 37°28' E 010°47'713.9
2018-Jan-23 06:30N 37°30' E 010°38'714.0
2018-Jan-23 06:00N 37°31' E 010°29'714.6
2018-Jan-23 05:30N 37°33' E 010°20'612.9
2018-Jan-23 05:01N 37°34' E 010°12'713.2
2018-Jan-23 04:31N 37°34' E 010°04'713.1
2018-Jan-23 04:00N 37°33' E 009°56'713.4
2018-Jan-23 03:31N 37°31' E 009°48'713.8
2018-Jan-23 03:00N 37°29' E 009°39'714.0
2018-Jan-23 02:30N 37°27' E 009°31'714.0
2018-Jan-23 02:00N 37°25' E 009°23'714.4
2018-Jan-23 01:30N 37°23' E 009°14'814.1
2018-Jan-23 00:58N 37°21' E 009°05'3313.5
2018-Jan-22 22:31N 37°16' E 008°24'011.7
2018-Jan-22 22:30N 37°16' E 008°23'26813.1
2018-Jan-22 02:07N 37°04' E 002°48'213.3
2018-Jan-22 02:00N 37°04' E 002°46'1613.5
2018-Jan-22 00:51N 37°01' E 002°26'6814.1
2018-Jan-21 20:03N 36°49' E 001°03'2914.0
2018-Jan-21 18:00N 36°43' E 000°28'713.6
2018-Jan-21 17:30N 36°42' E 000°20'713.6
2018-Jan-21 17:00N 36°40' E 000°11'4713.5
2018-Jan-21 13:31N 36°29' W 000°45'13714.1
2018-Jan-21 03:47N 36°07' W 003°33'1214.5
2018-Jan-21 02:58N 36°06' W 003°48'6914.5
2018-Jan-20 22:13N 35°59' W 005°12'314.9
2018-Jan-20 22:01N 35°59' W 005°16'815.5
2018-Jan-20 21:30N 35°58' W 005°26'15213.7
2018-Jan-20 10:26N 36°25' W 008°31'612.9
2018-Jan-20 10:00N 36°26' W 008°38'713.0
2018-Jan-20 09:30N 36°28' W 008°46'613.0
2018-Jan-20 09:00N 36°29' W 008°53'713.0
2018-Jan-20 08:30N 36°30' W 009°02'612.9
2018-Jan-20 08:00N 36°32' W 009°09'612.9
2018-Jan-20 07:30N 36°34' W 009°17'712.8
2018-Jan-20 07:00N 36°38' W 009°23'713.3
2018-Jan-20 06:30N 36°43' W 009°28'713.3
2018-Jan-20 05:58N 36°49' W 009°34'713.4
2018-Jan-20 05:28N 36°55' W 009°35'613.5
2018-Jan-20 05:00N 37°01' W 009°37'713.2
2018-Jan-20 04:29N 37°08' W 009°39'713.3
2018-Jan-20 03:58N 37°15' W 009°40'613.3
2018-Jan-20 03:30N 37°21' W 009°42'713.4
2018-Jan-20 03:00N 37°27' W 009°44'713.5
2018-Jan-20 02:31N 37°34' W 009°46'813.7
2018-Jan-20 01:55N 37°42' W 009°49'513.3
2018-Jan-20 01:31N 37°47' W 009°50'712.9
2018-Jan-20 00:58N 37°54' W 009°52'613.0
2018-Jan-20 00:31N 37°59' W 009°54'713.2
2018-Jan-20 00:01N 38°06' W 009°56'713.3
2018-Jan-19 23:30N 38°12' W 009°58'713.4
2018-Jan-19 23:00N 38°19' W 009°59'713.5
2018-Jan-19 22:30N 38°26' W 010°01'713.4
2018-Jan-19 22:01N 38°32' W 010°03'713.5
2018-Jan-19 21:31N 38°39' W 010°05'713.5
2018-Jan-19 21:00N 38°45' W 010°06'713.5
2018-Jan-19 20:29N 38°52' W 010°06'713.5
2018-Jan-19 20:00N 38°59' W 010°06'713.4
2018-Jan-19 19:30N 39°06' W 010°06'713.2
2018-Jan-19 19:01N 39°12' W 010°06'  
Track history (hours):
 
Tides and Currents Weather Stations Pressure Air Temp Water Temp Dewpoint Dewpoint Depression Visibility Wind Speed Wind Dir Waves Ship Positions

Cmb Mae

Last reported at 2018-Jan-23 23:07 UTC. Time now 2018-Jan-24 09:55 UTC.
Position N 35°32' E 014°28'.

Length 180 m; draft 9.4 m.

Type: Cargo ship. MMSI: 477962900.

Date/timePositionNaut miles runAvg speedWind from/ knotsBaromVisibWave heightAir tempDewpointWater temp
2018-Jan-23 23:07N 35°32' E 014°28'213.9
2018-Jan-23 23:00N 35°32' E 014°26'612.3
2018-Jan-23 22:30N 35°36' E 014°20'712.9
2018-Jan-23 22:00N 35°40' E 014°13'713.4
2018-Jan-23 21:30N 35°44' E 014°07'713.4
2018-Jan-23 21:00N 35°48' E 014°00'1212.8
2018-Jan-23 20:04N 35°55' E 013°49'112.8
2018-Jan-23 19:58N 35°56' E 013°47'8713.4
2018-Jan-23 13:31N 36°48' E 012°21'113.3
2018-Jan-23 13:27N 36°48' E 012°20'613.5
2018-Jan-23 13:00N 36°52' E 012°14'713.8
2018-Jan-23 12:31N 36°56' E 012°07'713.7
2018-Jan-23 12:01N 36°60' E 012°00'713.4
2018-Jan-23 11:30N 37°03' E 011°53'612.8
2018-Jan-23 11:01N 37°06' E 011°46'612.8
2018-Jan-23 10:31N 37°10' E 011°39'713.4
2018-Jan-23 10:00N 37°13' E 011°32'713.1
2018-Jan-23 09:31N 37°16' E 011°25'713.0
2018-Jan-23 09:01N 37°20' E 011°18'612.8
2018-Jan-23 08:31N 37°23' E 011°11'612.5
2018-Jan-23 08:00N 37°25' E 011°03'713.8
2018-Jan-23 07:30N 37°26' E 010°55'713.6
2018-Jan-23 07:01N 37°28' E 010°47'713.9
2018-Jan-23 06:30N 37°30' E 010°38'714.0
2018-Jan-23 06:00N 37°31' E 010°29'714.6
2018-Jan-23 05:30N 37°33' E 010°20'612.9
2018-Jan-23 05:01N 37°34' E 010°12'713.2
2018-Jan-23 04:31N 37°34' E 010°04'713.1
2018-Jan-23 04:00N 37°33' E 009°56'713.4
2018-Jan-23 03:31N 37°31' E 009°48'713.8
2018-Jan-23 03:00N 37°29' E 009°39'714.0
2018-Jan-23 02:30N 37°27' E 009°31'714.0
2018-Jan-23 02:00N 37°25' E 009°23'714.4
2018-Jan-23 01:30N 37°23' E 009°14'814.1
2018-Jan-23 00:58N 37°21' E 009°05'3313.5
2018-Jan-22 22:31N 37°16' E 008°24'011.7
2018-Jan-22 22:30N 37°16' E 008°23'26813.1
2018-Jan-22 02:07N 37°04' E 002°48'213.3
2018-Jan-22 02:00N 37°04' E 002°46'1613.5
2018-Jan-22 00:51N 37°01' E 002°26'6814.1
2018-Jan-21 20:03N 36°49' E 001°03'2914.0
2018-Jan-21 18:00N 36°43' E 000°28'713.6
2018-Jan-21 17:30N 36°42' E 000°20'713.6
2018-Jan-21 17:00N 36°40' E 000°11'4713.5
2018-Jan-21 13:31N 36°29' W 000°45'13714.1
2018-Jan-21 03:47N 36°07' W 003°33'1214.5
2018-Jan-21 02:58N 36°06' W 003°48'6914.5
2018-Jan-20 22:13N 35°59' W 005°12'314.9
2018-Jan-20 22:01N 35°59' W 005°16'815.5
2018-Jan-20 21:30N 35°58' W 005°26'15213.7
2018-Jan-20 10:26N 36°25' W 008°31'612.9
2018-Jan-20 10:00N 36°26' W 008°38'713.0
2018-Jan-20 09:30N 36°28' W 008°46'613.0
2018-Jan-20 09:00N 36°29' W 008°53'713.0
2018-Jan-20 08:30N 36°30' W 009°02'612.9
2018-Jan-20 08:00N 36°32' W 009°09'612.9
2018-Jan-20 07:30N 36°34' W 009°17'712.8
2018-Jan-20 07:00N 36°38' W 009°23'713.3
2018-Jan-20 06:30N 36°43' W 009°28'713.3
2018-Jan-20 05:58N 36°49' W 009°34'713.4
2018-Jan-20 05:28N 36°55' W 009°35'613.5
2018-Jan-20 05:00N 37°01' W 009°37'713.2
2018-Jan-20 04:29N 37°08' W 009°39'713.3
2018-Jan-20 03:58N 37°15' W 009°40'613.3
2018-Jan-20 03:30N 37°21' W 009°42'713.4
2018-Jan-20 03:00N 37°27' W 009°44'713.5
2018-Jan-20 02:31N 37°34' W 009°46'813.7
2018-Jan-20 01:55N 37°42' W 009°49'513.3
2018-Jan-20 01:31N 37°47' W 009°50'712.9
2018-Jan-20 00:58N 37°54' W 009°52'613.0
2018-Jan-20 00:31N 37°59' W 009°54'713.2
2018-Jan-20 00:01N 38°06' W 009°56'713.3
2018-Jan-19 23:30N 38°12' W 009°58'713.4
2018-Jan-19 23:00N 38°19' W 009°59'713.5
2018-Jan-19 22:30N 38°26' W 010°01'713.4
2018-Jan-19 22:01N 38°32' W 010°03'713.5
2018-Jan-19 21:31N 38°39' W 010°05'713.5
2018-Jan-19 21:00N 38°45' W 010°06'713.5
2018-Jan-19 20:29N 38°52' W 010°06'713.5
2018-Jan-19 20:00N 38°59' W 010°06'713.4
2018-Jan-19 19:30N 39°06' W 010°06'713.2
2018-Jan-19 19:01N 39°12' W 010°06'  

Dump ship's entire track history